sensor_id;sensor_type;location;lat;lon;timestamp;temperature;humidity
15239;DHT22;7722;53.274;9.500;2022-12-04T00:01:10;-0.40;99.90
15239;DHT22;7722;53.274;9.500;2022-12-04T00:03:38;-0.40;99.90
15239;DHT22;7722;53.274;9.500;2022-12-04T00:06:09;-0.30;99.90
15239;DHT22;7722;53.274;9.500;2022-12-04T00:08:37;-0.30;99.90
15239;DHT22;7722;53.274;9.500;2022-12-04T00:11:05;-0.40;99.90
15239;DHT22;7722;53.274;9.500;2022-12-04T00:13:33;-0.30;99.90
15239;DHT22;7722;53.274;9.500;2022-12-04T00:16:02;-0.30;99.90
15239;DHT22;7722;53.274;9.500;2022-12-04T00:18:31;-0.40;99.90
15239;DHT22;7722;53.274;9.500;2022-12-04T00:20:58;-0.40;99.90
15239;DHT22;7722;53.274;9.500;2022-12-04T00:23:25;-0.40;99.90
15239;DHT22;7722;53.274;9.500;2022-12-04T00:25:52;-0.40;99.90
15239;DHT22;7722;53.274;9.500;2022-12-04T00:28:24;-0.40;99.90
15239;DHT22;7722;53.274;9.500;2022-12-04T00:30:51;-0.40;99.90
15239;DHT22;7722;53.274;9.500;2022-12-04T00:33:18;-0.40;99.90
15239;DHT22;7722;53.274;9.500;2022-12-04T00:35:47;-0.40;99.90
15239;DHT22;7722;53.274;9.500;2022-12-04T00:38:14;-0.30;99.90
15239;DHT22;7722;53.274;9.500;2022-12-04T00:40:48;-0.40;99.90
15239;DHT22;7722;53.274;9.500;2022-12-04T00:43:15;-0.30;99.90
15239;DHT22;7722;53.274;9.500;2022-12-04T00:45:42;-0.30;99.90
15239;DHT22;7722;53.274;9.500;2022-12-04T00:48:09;-0.40;99.90
15239;DHT22;7722;53.274;9.500;2022-12-04T00:50:36;-0.30;99.90
15239;DHT22;7722;53.274;9.500;2022-12-04T00:53:05;-0.30;99.90
15239;DHT22;7722;53.274;9.500;2022-12-04T00:55:32;-0.30;99.90
15239;DHT22;7722;53.274;9.500;2022-12-04T00:57:59;-0.40;99.90
15239;DHT22;7722;53.274;9.500;2022-12-04T01:00:26;-0.30;99.90
15239;DHT22;7722;53.274;9.500;2022-12-04T01:02:53;-0.30;99.90
15239;DHT22;7722;53.274;9.500;2022-12-04T01:05:20;-0.30;99.90
15239;DHT22;7722;53.274;9.500;2022-12-04T01:07:47;-0.20;99.90
15239;DHT22;7722;53.274;9.500;2022-12-04T01:10:16;-0.20;99.90
15239;DHT22;7722;53.274;9.500;2022-12-04T01:12:43;-0.20;99.90
15239;DHT22;7722;53.274;9.500;2022-12-04T01:15:10;-0.20;99.90
15239;DHT22;7722;53.274;9.500;2022-12-04T01:17:37;-0.20;99.90
15239;DHT22;7722;53.274;9.500;2022-12-04T01:20:05;-0.30;99.90
15239;DHT22;7722;53.274;9.500;2022-12-04T01:22:32;-0.20;99.90
15239;DHT22;7722;53.274;9.500;2022-12-04T01:24:59;-0.20;99.90
15239;DHT22;7722;53.274;9.500;2022-12-04T01:27:27;-0.20;99.90
15239;DHT22;7722;53.274;9.500;2022-12-04T01:29:54;-0.20;99.90
15239;DHT22;7722;53.274;9.500;2022-12-04T01:32:21;-0.20;99.90
15239;DHT22;7722;53.274;9.500;2022-12-04T01:34:49;-0.20;99.90
15239;DHT22;7722;53.274;9.500;2022-12-04T01:37:16;-0.20;99.90
15239;DHT22;7722;53.274;9.500;2022-12-04T01:39:43;-0.20;99.90
15239;DHT22;7722;53.274;9.500;2022-12-04T01:42:11;-0.20;99.90
15239;DHT22;7722;53.274;9.500;2022-12-04T01:44:43;-0.20;99.90
15239;DHT22;7722;53.274;9.500;2022-12-04T01:47:10;-0.20;99.90
15239;DHT22;7722;53.274;9.500;2022-12-04T01:49:40;-0.10;99.90
15239;DHT22;7722;53.274;9.500;2022-12-04T01:52:12;-0.20;99.90
15239;DHT22;7722;53.274;9.500;2022-12-04T01:54:43;-0.20;99.90
15239;DHT22;7722;53.274;9.500;2022-12-04T01:57:13;-0.20;99.90
15239;DHT22;7722;53.274;9.500;2022-12-04T01:59:44;-0.20;99.90
15239;DHT22;7722;53.274;9.500;2022-12-04T02:02:14;-0.20;99.90
15239;DHT22;7722;53.274;9.500;2022-12-04T02:04:41;-0.20;99.90
15239;DHT22;7722;53.274;9.500;2022-12-04T02:07:10;-0.30;99.90
15239;DHT22;7722;53.274;9.500;2022-12-04T02:09:38;-0.20;99.90
15239;DHT22;7722;53.274;9.500;2022-12-04T02:12:11;-0.20;99.90
15239;DHT22;7722;53.274;9.500;2022-12-04T02:14:47;-0.20;99.90
15239;DHT22;7722;53.274;9.500;2022-12-04T02:17:24;-0.20;99.90
15239;DHT22;7722;53.274;9.500;2022-12-04T02:20:09;-0.10;99.90
15239;DHT22;7722;53.274;9.500;2022-12-04T02:22:51;-0.10;99.90
15239;DHT22;7722;53.274;9.500;2022-12-04T02:25:26;-0.10;99.90
15239;DHT22;7722;53.274;9.500;2022-12-04T02:28:04;-0.10;99.90
15239;DHT22;7722;53.274;9.500;2022-12-04T02:30:37;-0.20;99.90
15239;DHT22;7722;53.274;9.500;2022-12-04T02:33:09;-0.20;99.90
15239;DHT22;7722;53.274;9.500;2022-12-04T02:35:41;-0.20;99.90
15239;DHT22;7722;53.274;9.500;2022-12-04T02:38:15;-0.20;99.90
15239;DHT22;7722;53.274;9.500;2022-12-04T02:40:49;0.00;99.90
15239;DHT22;7722;53.274;9.500;2022-12-04T02:43:22;-0.10;99.90
15239;DHT22;7722;53.274;9.500;2022-12-04T02:45:55;-0.10;99.90
15239;DHT22;7722;53.274;9.500;2022-12-04T02:48:23;-0.10;99.90
15239;DHT22;7722;53.274;9.500;2022-12-04T02:50:54;-0.10;99.90
15239;DHT22;7722;53.274;9.500;2022-12-04T02:53:25;-0.10;99.90
15239;DHT22;7722;53.274;9.500;2022-12-04T02:55:56;-0.10;99.90
15239;DHT22;7722;53.274;9.500;2022-12-04T02:58:29;-0.10;99.90
15239;DHT22;7722;53.274;9.500;2022-12-04T03:00:59;-0.10;99.90
15239;DHT22;7722;53.274;9.500;2022-12-04T03:03:29;-0.10;99.90
15239;DHT22;7722;53.274;9.500;2022-12-04T03:06:00;-0.10;99.90
15239;DHT22;7722;53.274;9.500;2022-12-04T03:08:31;-0.20;99.90
15239;DHT22;7722;53.274;9.500;2022-12-04T03:11:00;-0.10;99.90
15239;DHT22;7722;53.274;9.500;2022-12-04T03:13:34;0.00;99.90
15239;DHT22;7722;53.274;9.500;2022-12-04T03:16:06;-0.10;99.90
15239;DHT22;7722;53.274;9.500;2022-12-04T03:18:37;-0.10;99.90
15239;DHT22;7722;53.274;9.500;2022-12-04T03:21:08;-0.10;99.90
15239;DHT22;7722;53.274;9.500;2022-12-04T03:23:40;-0.10;99.90
15239;DHT22;7722;53.274;9.500;2022-12-04T03:26:13;-0.10;99.90
15239;DHT22;7722;53.274;9.500;2022-12-04T03:28:48;-0.10;99.90
15239;DHT22;7722;53.274;9.500;2022-12-04T03:31:20;-0.10;99.90
15239;DHT22;7722;53.274;9.500;2022-12-04T03:33:49;-0.10;99.90
15239;DHT22;7722;53.274;9.500;2022-12-04T03:36:20;-0.10;99.90
15239;DHT22;7722;53.274;9.500;2022-12-04T03:38:56;-0.10;99.90
15239;DHT22;7722;53.274;9.500;2022-12-04T03:41:28;-0.10;99.90
15239;DHT22;7722;53.274;9.500;2022-12-04T03:44:00;-0.10;99.90
15239;DHT22;7722;53.274;9.500;2022-12-04T03:46:31;0.00;99.90
15239;DHT22;7722;53.274;9.500;2022-12-04T03:49:05;-0.10;99.90
15239;DHT22;7722;53.274;9.500;2022-12-04T03:51:37;0.00;99.90
15239;DHT22;7722;53.274;9.500;2022-12-04T03:54:10;0.00;99.90
15239;DHT22;7722;53.274;9.500;2022-12-04T03:56:40;0.00;99.90
15239;DHT22;7722;53.274;9.500;2022-12-04T03:59:21;0.00;99.90
15239;DHT22;7722;53.274;9.500;2022-12-04T04:01:50;0.00;99.90
15239;DHT22;7722;53.274;9.500;2022-12-04T04:04:21;0.00;99.90
15239;DHT22;7722;53.274;9.500;2022-12-04T04:06:54;0.00;99.90
15239;DHT22;7722;53.274;9.500;2022-12-04T04:09:25;0.00;99.90
15239;DHT22;7722;53.274;9.500;2022-12-04T04:11:55;0.00;99.90
15239;DHT22;7722;53.274;9.500;2022-12-04T04:14:29;0.10;99.90
15239;DHT22;7722;53.274;9.500;2022-12-04T04:17:17;0.10;99.90
15239;DHT22;7722;53.274;9.500;2022-12-04T04:20:09;0.10;99.90
15239;DHT22;7722;53.274;9.500;2022-12-04T04:22:57;0.10;99.90
15239;DHT22;7722;53.274;9.500;2022-12-04T04:25:43;0.10;99.90
15239;DHT22;7722;53.274;9.500;2022-12-04T04:28:28;0.10;99.90
15239;DHT22;7722;53.274;9.500;2022-12-04T04:31:06;0.10;99.90
15239;DHT22;7722;53.274;9.500;2022-12-04T04:33:40;0.10;99.90
15239;DHT22;7722;53.274;9.500;2022-12-04T04:36:15;0.20;99.90
15239;DHT22;7722;53.274;9.500;2022-12-04T04:38:49;0.30;99.90
15239;DHT22;7722;53.274;9.500;2022-12-04T04:41:21;0.20;99.90
15239;DHT22;7722;53.274;9.500;2022-12-04T04:43:58;0.20;99.90
15239;DHT22;7722;53.274;9.500;2022-12-04T04:46:32;0.20;99.90
15239;DHT22;7722;53.274;9.500;2022-12-04T04:49:02;0.10;99.90
15239;DHT22;7722;53.274;9.500;2022-12-04T04:51:32;0.20;99.90
15239;DHT22;7722;53.274;9.500;2022-12-04T04:54:02;0.30;99.90
15239;DHT22;7722;53.274;9.500;2022-12-04T04:56:30;0.30;99.90
15239;DHT22;7722;53.274;9.500;2022-12-04T04:58:57;0.20;99.90
15239;DHT22;7722;53.274;9.500;2022-12-04T05:01:26;0.20;99.90
15239;DHT22;7722;53.274;9.500;2022-12-04T05:03:55;0.30;99.90
15239;DHT22;7722;53.274;9.500;2022-12-04T05:06:22;0.30;99.90
15239;DHT22;7722;53.274;9.500;2022-12-04T05:08:49;0.30;99.90
15239;DHT22;7722;53.274;9.500;2022-12-04T05:11:16;0.30;99.90
15239;DHT22;7722;53.274;9.500;2022-12-04T05:13:43;0.30;99.90
15239;DHT22;7722;53.274;9.500;2022-12-04T05:16:13;0.30;99.90
15239;DHT22;7722;53.274;9.500;2022-12-04T05:18:41;0.30;99.90
15239;DHT22;7722;53.274;9.500;2022-12-04T05:21:32;0.30;99.90
15239;DHT22;7722;53.274;9.500;2022-12-04T05:24:00;0.30;99.90
15239;DHT22;7722;53.274;9.500;2022-12-04T05:26:27;0.40;99.90
15239;DHT22;7722;53.274;9.500;2022-12-04T05:28:54;0.30;99.90
15239;DHT22;7722;53.274;9.500;2022-12-04T05:31:21;0.40;99.90
15239;DHT22;7722;53.274;9.500;2022-12-04T05:33:48;0.30;99.90
15239;DHT22;7722;53.274;9.500;2022-12-04T05:36:15;0.40;99.90
15239;DHT22;7722;53.274;9.500;2022-12-04T05:38:43;0.40;99.90
15239;DHT22;7722;53.274;9.500;2022-12-04T05:41:10;0.40;99.90
15239;DHT22;7722;53.274;9.500;2022-12-04T05:43:37;0.40;99.90
15239;DHT22;7722;53.274;9.500;2022-12-04T05:46:06;0.50;99.90
15239;DHT22;7722;53.274;9.500;2022-12-04T05:48:34;0.40;99.90
15239;DHT22;7722;53.274;9.500;2022-12-04T05:51:04;0.30;99.90
15239;DHT22;7722;53.274;9.500;2022-12-04T05:53:31;0.30;99.90
15239;DHT22;7722;53.274;9.500;2022-12-04T05:56:01;0.30;99.90
15239;DHT22;7722;53.274;9.500;2022-12-04T05:58:28;0.30;99.90
15239;DHT22;7722;53.274;9.500;2022-12-04T06:00:55;0.30;99.90
15239;DHT22;7722;53.274;9.500;2022-12-04T06:03:22;0.40;99.90
15239;DHT22;7722;53.274;9.500;2022-12-04T06:05:49;0.40;99.90
15239;DHT22;7722;53.274;9.500;2022-12-04T06:08:16;0.40;99.90
15239;DHT22;7722;53.274;9.500;2022-12-04T06:10:46;0.40;99.90
15239;DHT22;7722;53.274;9.500;2022-12-04T06:13:19;0.40;99.90
15239;DHT22;7722;53.274;9.500;2022-12-04T06:15:46;0.40;99.90
15239;DHT22;7722;53.274;9.500;2022-12-04T06:18:13;0.40;99.90
15239;DHT22;7722;53.274;9.500;2022-12-04T06:20:40;0.30;99.90
15239;DHT22;7722;53.274;9.500;2022-12-04T06:23:07;0.30;99.90
15239;DHT22;7722;53.274;9.500;2022-12-04T06:25:33;0.30;99.90
15239;DHT22;7722;53.274;9.500;2022-12-04T06:28:00;0.40;99.90
15239;DHT22;7722;53.274;9.500;2022-12-04T06:30:29;0.40;99.90
15239;DHT22;7722;53.274;9.500;2022-12-04T06:32:56;0.40;99.90
15239;DHT22;7722;53.274;9.500;2022-12-04T06:35:23;0.40;99.90
15239;DHT22;7722;53.274;9.500;2022-12-04T06:37:50;0.40;99.90
15239;DHT22;7722;53.274;9.500;2022-12-04T06:40:17;0.40;99.90
15239;DHT22;7722;53.274;9.500;2022-12-04T06:42:44;0.40;99.90
15239;DHT22;7722;53.274;9.500;2022-12-04T06:45:11;0.50;99.90
15239;DHT22;7722;53.274;9.500;2022-12-04T06:47:39;0.50;99.90
15239;DHT22;7722;53.274;9.500;2022-12-04T06:50:07;0.50;99.90
15239;DHT22;7722;53.274;9.500;2022-12-04T06:52:34;0.40;99.90
15239;DHT22;7722;53.274;9.500;2022-12-04T06:55:01;0.40;99.90
15239;DHT22;7722;53.274;9.500;2022-12-04T06:57:28;0.40;99.90
15239;DHT22;7722;53.274;9.500;2022-12-04T06:59:55;0.50;99.90
15239;DHT22;7722;53.274;9.500;2022-12-04T07:02:22;0.50;99.90
15239;DHT22;7722;53.274;9.500;2022-12-04T07:04:53;0.40;99.90
15239;DHT22;7722;53.274;9.500;2022-12-04T07:07:20;0.50;99.90
15239;DHT22;7722;53.274;9.500;2022-12-04T07:09:47;0.50;99.90
15239;DHT22;7722;53.274;9.500;2022-12-04T07:12:14;0.40;99.90
15239;DHT22;7722;53.274;9.500;2022-12-04T07:14:41;0.40;99.90
15239;DHT22;7722;53.274;9.500;2022-12-04T07:17:08;0.50;99.90
15239;DHT22;7722;53.274;9.500;2022-12-04T07:19:36;0.50;99.90
15239;DHT22;7722;53.274;9.500;2022-12-04T07:22:05;0.50;99.90
15239;DHT22;7722;53.274;9.500;2022-12-04T07:24:34;0.50;99.90
15239;DHT22;7722;53.274;9.500;2022-12-04T07:27:02;0.40;99.90
15239;DHT22;7722;53.274;9.500;2022-12-04T07:29:29;0.50;99.90
15239;DHT22;7722;53.274;9.500;2022-12-04T07:31:56;0.50;99.90
15239;DHT22;7722;53.274;9.500;2022-12-04T07:34:23;0.40;99.90
15239;DHT22;7722;53.274;9.500;2022-12-04T07:36:50;0.40;99.90
15239;DHT22;7722;53.274;9.500;2022-12-04T07:39:19;0.50;99.90
15239;DHT22;7722;53.274;9.500;2022-12-04T07:41:46;0.50;99.90
15239;DHT22;7722;53.274;9.500;2022-12-04T07:44:13;0.50;99.90
15239;DHT22;7722;53.274;9.500;2022-12-04T07:46:40;0.50;99.90
15239;DHT22;7722;53.274;9.500;2022-12-04T07:49:10;0.50;99.90
15239;DHT22;7722;53.274;9.500;2022-12-04T07:51:38;0.60;99.90
15239;DHT22;7722;53.274;9.500;2022-12-04T07:54:05;0.60;99.90
15239;DHT22;7722;53.274;9.500;2022-12-04T07:56:34;0.60;99.90
15239;DHT22;7722;53.274;9.500;2022-12-04T07:59:02;0.60;99.90
15239;DHT22;7722;53.274;9.500;2022-12-04T08:01:29;0.60;99.90
15239;DHT22;7722;53.274;9.500;2022-12-04T08:03:57;0.60;99.90
15239;DHT22;7722;53.274;9.500;2022-12-04T08:06:26;0.60;99.90
15239;DHT22;7722;53.274;9.500;2022-12-04T08:08:53;0.70;99.90
15239;DHT22;7722;53.274;9.500;2022-12-04T08:11:24;0.70;99.90
15239;DHT22;7722;53.274;9.500;2022-12-04T08:13:54;0.70;99.90
15239;DHT22;7722;53.274;9.500;2022-12-04T08:16:21;0.70;99.90
15239;DHT22;7722;53.274;9.500;2022-12-04T08:18:48;0.70;99.90
15239;DHT22;7722;53.274;9.500;2022-12-04T08:21:17;0.80;99.90
15239;DHT22;7722;53.274;9.500;2022-12-04T08:23:45;0.80;99.90
15239;DHT22;7722;53.274;9.500;2022-12-04T08:26:12;0.90;99.90
15239;DHT22;7722;53.274;9.500;2022-12-04T08:28:40;0.90;99.90
15239;DHT22;7722;53.274;9.500;2022-12-04T08:31:11;0.90;99.90
15239;DHT22;7722;53.274;9.500;2022-12-04T08:33:39;0.90;99.90
15239;DHT22;7722;53.274;9.500;2022-12-04T08:36:07;0.80;99.90
15239;DHT22;7722;53.274;9.500;2022-12-04T08:38:35;0.80;99.90
15239;DHT22;7722;53.274;9.500;2022-12-04T08:41:03;0.90;99.90
15239;DHT22;7722;53.274;9.500;2022-12-04T08:43:31;0.90;99.90
15239;DHT22;7722;53.274;9.500;2022-12-04T08:46:00;0.80;99.90
15239;DHT22;7722;53.274;9.500;2022-12-04T08:48:28;0.90;99.90
15239;DHT22;7722;53.274;9.500;2022-12-04T08:50:55;0.90;99.90
15239;DHT22;7722;53.274;9.500;2022-12-04T08:53:23;0.90;99.90
15239;DHT22;7722;53.274;9.500;2022-12-04T08:55:51;0.80;99.90
15239;DHT22;7722;53.274;9.500;2022-12-04T08:58:18;0.80;99.90
15239;DHT22;7722;53.274;9.500;2022-12-04T09:00:46;0.90;99.90
15239;DHT22;7722;53.274;9.500;2022-12-04T09:03:14;0.90;99.90
15239;DHT22;7722;53.274;9.500;2022-12-04T09:05:43;0.90;99.90
15239;DHT22;7722;53.274;9.500;2022-12-04T09:08:11;0.90;99.90
15239;DHT22;7722;53.274;9.500;2022-12-04T09:10:39;0.90;99.90
15239;DHT22;7722;53.274;9.500;2022-12-04T09:13:07;0.90;99.90
15239;DHT22;7722;53.274;9.500;2022-12-04T09:15:37;1.10;99.90
15239;DHT22;7722;53.274;9.500;2022-12-04T09:18:05;1.00;99.90
15239;DHT22;7722;53.274;9.500;2022-12-04T09:20:34;1.00;99.90
15239;DHT22;7722;53.274;9.500;2022-12-04T09:23:03;1.10;99.90
15239;DHT22;7722;53.274;9.500;2022-12-04T09:25:30;1.00;99.90
15239;DHT22;7722;53.274;9.500;2022-12-04T09:27:58;1.10;99.90
15239;DHT22;7722;53.274;9.500;2022-12-04T09:30:25;1.10;99.90
15239;DHT22;7722;53.274;9.500;2022-12-04T09:32:52;1.00;99.90
15239;DHT22;7722;53.274;9.500;2022-12-04T09:35:19;1.20;99.90
15239;DHT22;7722;53.274;9.500;2022-12-04T09:37:47;1.10;99.90
15239;DHT22;7722;53.274;9.500;2022-12-04T09:40:24;1.20;99.90
15239;DHT22;7722;53.274;9.500;2022-12-04T09:42:55;1.20;99.90
15239;DHT22;7722;53.274;9.500;2022-12-04T09:45:27;1.30;99.90
15239;DHT22;7722;53.274;9.500;2022-12-04T09:48:00;1.30;99.90
15239;DHT22;7722;53.274;9.500;2022-12-04T09:50:38;1.30;99.90
15239;DHT22;7722;53.274;9.500;2022-12-04T09:53:11;1.30;99.90
15239;DHT22;7722;53.274;9.500;2022-12-04T09:55:53;1.30;99.90
15239;DHT22;7722;53.274;9.500;2022-12-04T09:58:23;1.40;99.90
15239;DHT22;7722;53.274;9.500;2022-12-04T10:00:52;1.40;99.90
15239;DHT22;7722;53.274;9.500;2022-12-04T10:03:25;1.50;99.90
15239;DHT22;7722;53.274;9.500;2022-12-04T10:05:58;1.50;99.90
15239;DHT22;7722;53.274;9.500;2022-12-04T10:08:29;1.60;99.90
15239;DHT22;7722;53.274;9.500;2022-12-04T10:11:07;1.60;99.90
15239;DHT22;7722;53.274;9.500;2022-12-04T10:13:59;1.60;99.90
15239;DHT22;7722;53.274;9.500;2022-12-04T10:16:36;1.60;99.90
15239;DHT22;7722;53.274;9.500;2022-12-04T10:19:11;1.60;99.90
15239;DHT22;7722;53.274;9.500;2022-12-04T10:21:48;1.50;99.90
15239;DHT22;7722;53.274;9.500;2022-12-04T10:24:38;1.60;99.90
15239;DHT22;7722;53.274;9.500;2022-12-04T10:27:41;1.60;99.90
15239;DHT22;7722;53.274;9.500;2022-12-04T10:30:20;1.60;99.90
15239;DHT22;7722;53.274;9.500;2022-12-04T10:32:49;1.60;99.90
15239;DHT22;7722;53.274;9.500;2022-12-04T10:35:20;1.60;99.90
15239;DHT22;7722;53.274;9.500;2022-12-04T10:37:53;1.60;99.90
15239;DHT22;7722;53.274;9.500;2022-12-04T10:40:24;1.70;99.90
15239;DHT22;7722;53.274;9.500;2022-12-04T10:42:55;1.60;99.90
15239;DHT22;7722;53.274;9.500;2022-12-04T10:45:25;1.60;99.90
15239;DHT22;7722;53.274;9.500;2022-12-04T10:47:52;1.60;99.90
15239;DHT22;7722;53.274;9.500;2022-12-04T10:50:22;1.60;99.90
15239;DHT22;7722;53.274;9.500;2022-12-04T10:52:49;1.60;99.90
15239;DHT22;7722;53.274;9.500;2022-12-04T10:55:27;1.70;99.90
15239;DHT22;7722;53.274;9.500;2022-12-04T10:57:56;1.70;99.90
15239;DHT22;7722;53.274;9.500;2022-12-04T11:00:26;1.70;99.90
15239;DHT22;7722;53.274;9.500;2022-12-04T11:02:56;1.70;99.90
15239;DHT22;7722;53.274;9.500;2022-12-04T11:05:28;1.70;99.90
15239;DHT22;7722;53.274;9.500;2022-12-04T11:07:56;1.70;99.90
15239;DHT22;7722;53.274;9.500;2022-12-04T11:10:25;1.70;99.90
15239;DHT22;7722;53.274;9.500;2022-12-04T11:13:01;1.80;99.90
15239;DHT22;7722;53.274;9.500;2022-12-04T11:15:29;1.80;99.90
15239;DHT22;7722;53.274;9.500;2022-12-04T11:18:06;1.80;99.90
15239;DHT22;7722;53.274;9.500;2022-12-04T11:20:34;1.90;99.90
15239;DHT22;7722;53.274;9.500;2022-12-04T11:23:02;1.90;99.90
15239;DHT22;7722;53.274;9.500;2022-12-04T11:25:34;1.90;99.90
15239;DHT22;7722;53.274;9.500;2022-12-04T11:28:04;1.90;99.90
15239;DHT22;7722;53.274;9.500;2022-12-04T11:30:33;1.90;99.90
15239;DHT22;7722;53.274;9.500;2022-12-04T11:33:03;1.90;99.90
15239;DHT22;7722;53.274;9.500;2022-12-04T11:35:31;1.90;99.90
15239;DHT22;7722;53.274;9.500;2022-12-04T11:38:04;1.90;99.90
15239;DHT22;7722;53.274;9.500;2022-12-04T11:40:33;2.00;99.90
15239;DHT22;7722;53.274;9.500;2022-12-04T11:43:11;2.20;99.90
15239;DHT22;7722;53.274;9.500;2022-12-04T11:45:39;2.00;99.90
15239;DHT22;7722;53.274;9.500;2022-12-04T11:48:14;2.00;99.90
15239;DHT22;7722;53.274;9.500;2022-12-04T11:50:47;2.00;99.90
15239;DHT22;7722;53.274;9.500;2022-12-04T11:53:21;2.00;99.90
15239;DHT22;7722;53.274;9.500;2022-12-04T11:56:05;1.90;99.90
15239;DHT22;7722;53.274;9.500;2022-12-04T11:58:50;1.90;99.90
15239;DHT22;7722;53.274;9.500;2022-12-04T12:01:32;2.00;99.90
15239;DHT22;7722;53.274;9.500;2022-12-04T12:04:28;1.90;99.90
15239;DHT22;7722;53.274;9.500;2022-12-04T12:07:10;1.90;99.90
15239;DHT22;7722;53.274;9.500;2022-12-04T12:09:47;2.00;99.90
15239;DHT22;7722;53.274;9.500;2022-12-04T12:12:23;2.00;99.90
15239;DHT22;7722;53.274;9.500;2022-12-04T12:15:00;1.90;99.90
15239;DHT22;7722;53.274;9.500;2022-12-04T12:17:36;2.00;99.90
15239;DHT22;7722;53.274;9.500;2022-12-04T12:20:15;2.00;99.90
15239;DHT22;7722;53.274;9.500;2022-12-04T12:23:00;2.00;99.90
15239;DHT22;7722;53.274;9.500;2022-12-04T12:25:33;2.10;99.90
15239;DHT22;7722;53.274;9.500;2022-12-04T12:28:15;2.00;99.90
15239;DHT22;7722;53.274;9.500;2022-12-04T12:31:03;2.10;99.90
15239;DHT22;7722;53.274;9.500;2022-12-04T12:33:35;2.10;99.90
15239;DHT22;7722;53.274;9.500;2022-12-04T12:36:06;2.20;99.90
15239;DHT22;7722;53.274;9.500;2022-12-04T12:38:38;2.20;99.90
15239;DHT22;7722;53.274;9.500;2022-12-04T12:41:11;2.20;99.90
15239;DHT22;7722;53.274;9.500;2022-12-04T12:43:40;2.10;99.90
15239;DHT22;7722;53.274;9.500;2022-12-04T12:46:14;2.20;99.90
15239;DHT22;7722;53.274;9.500;2022-12-04T12:48:49;2.20;99.90
15239;DHT22;7722;53.274;9.500;2022-12-04T12:51:26;2.30;99.90
15239;DHT22;7722;53.274;9.500;2022-12-04T12:54:02;2.30;99.90
15239;DHT22;7722;53.274;9.500;2022-12-04T12:56:34;2.40;99.90
15239;DHT22;7722;53.274;9.500;2022-12-04T12:59:07;2.20;99.90
15239;DHT22;7722;53.274;9.500;2022-12-04T13:01:44;2.30;99.90
15239;DHT22;7722;53.274;9.500;2022-12-04T13:04:19;2.30;99.90
15239;DHT22;7722;53.274;9.500;2022-12-04T13:06:56;2.30;99.90
15239;DHT22;7722;53.274;9.500;2022-12-04T13:09:30;2.30;99.90
15239;DHT22;7722;53.274;9.500;2022-12-04T13:11:59;2.30;99.90
15239;DHT22;7722;53.274;9.500;2022-12-04T13:14:28;2.30;99.90
15239;DHT22;7722;53.274;9.500;2022-12-04T13:16:59;2.30;99.90
15239;DHT22;7722;53.274;9.500;2022-12-04T13:19:28;2.40;99.90
15239;DHT22;7722;53.274;9.500;2022-12-04T13:22:05;2.40;99.90
15239;DHT22;7722;53.274;9.500;2022-12-04T13:27:45;2.50;99.90
15239;DHT22;7722;53.274;9.500;2022-12-04T13:30:18;2.50;99.90
15239;DHT22;7722;53.274;9.500;2022-12-04T13:33:12;2.50;99.90
15239;DHT22;7722;53.274;9.500;2022-12-04T13:39:21;2.50;99.90
15239;DHT22;7722;53.274;9.500;2022-12-04T13:41:57;2.50;99.90
15239;DHT22;7722;53.274;9.500;2022-12-04T13:44:26;2.50;99.90
15239;DHT22;7722;53.274;9.500;2022-12-04T13:46:57;2.50;99.90
15239;DHT22;7722;53.274;9.500;2022-12-04T13:49:29;2.50;99.90
15239;DHT22;7722;53.274;9.500;2022-12-04T13:51:58;2.40;99.90
15239;DHT22;7722;53.274;9.500;2022-12-04T13:54:29;2.40;99.90
15239;DHT22;7722;53.274;9.500;2022-12-04T13:57:14;2.40;99.90
15239;DHT22;7722;53.274;9.500;2022-12-04T13:59:42;2.40;99.90
15239;DHT22;7722;53.274;9.500;2022-12-04T14:02:30;2.40;99.90
15239;DHT22;7722;53.274;9.500;2022-12-04T14:05:04;2.40;99.90
15239;DHT22;7722;53.274;9.500;2022-12-04T14:07:34;2.40;99.90
15239;DHT22;7722;53.274;9.500;2022-12-04T14:10:05;2.40;99.90
15239;DHT22;7722;53.274;9.500;2022-12-04T14:12:36;2.40;99.90
15239;DHT22;7722;53.274;9.500;2022-12-04T14:15:06;2.40;99.90
15239;DHT22;7722;53.274;9.500;2022-12-04T14:17:35;2.40;99.90
15239;DHT22;7722;53.274;9.500;2022-12-04T14:20:06;2.40;99.90
15239;DHT22;7722;53.274;9.500;2022-12-04T14:22:42;2.40;99.90
15239;DHT22;7722;53.274;9.500;2022-12-04T14:25:31;2.40;99.90
15239;DHT22;7722;53.274;9.500;2022-12-04T14:28:12;2.40;99.90
15239;DHT22;7722;53.274;9.500;2022-12-04T14:30:39;2.40;99.90
15239;DHT22;7722;53.274;9.500;2022-12-04T14:33:08;2.40;99.90
15239;DHT22;7722;53.274;9.500;2022-12-04T14:35:46;2.40;99.90
15239;DHT22;7722;53.274;9.500;2022-12-04T14:38:17;2.40;99.90
15239;DHT22;7722;53.274;9.500;2022-12-04T14:40:47;2.40;99.90
15239;DHT22;7722;53.274;9.500;2022-12-04T14:43:18;2.40;99.90
15239;DHT22;7722;53.274;9.500;2022-12-04T14:45:49;2.50;99.90
15239;DHT22;7722;53.274;9.500;2022-12-04T14:48:26;2.50;99.90
15239;DHT22;7722;53.274;9.500;2022-12-04T14:51:06;2.50;99.90
15239;DHT22;7722;53.274;9.500;2022-12-04T14:53:40;2.40;99.90
15239;DHT22;7722;53.274;9.500;2022-12-04T14:56:28;2.50;99.90
15239;DHT22;7722;53.274;9.500;2022-12-04T14:59:04;2.40;99.90
15239;DHT22;7722;53.274;9.500;2022-12-04T15:01:36;2.50;99.90
15239;DHT22;7722;53.274;9.500;2022-12-04T15:04:11;2.50;99.90
15239;DHT22;7722;53.274;9.500;2022-12-04T15:06:42;2.50;99.90
15239;DHT22;7722;53.274;9.500;2022-12-04T15:09:16;2.60;99.90
15239;DHT22;7722;53.274;9.500;2022-12-04T15:12:13;2.50;99.90
15239;DHT22;7722;53.274;9.500;2022-12-04T15:15:06;2.50;99.90
15239;DHT22;7722;53.274;9.500;2022-12-04T15:17:34;2.50;99.90
15239;DHT22;7722;53.274;9.500;2022-12-04T15:20:14;2.50;99.90
15239;DHT22;7722;53.274;9.500;2022-12-04T15:22:44;2.50;99.90
15239;DHT22;7722;53.274;9.500;2022-12-04T15:25:18;2.50;99.90
15239;DHT22;7722;53.274;9.500;2022-12-04T15:27:46;2.50;99.90
15239;DHT22;7722;53.274;9.500;2022-12-04T15:30:16;2.60;99.90
15239;DHT22;7722;53.274;9.500;2022-12-04T15:32:44;2.70;99.90
15239;DHT22;7722;53.274;9.500;2022-12-04T15:35:21;2.60;99.90
15239;DHT22;7722;53.274;9.500;2022-12-04T15:37:52;2.60;99.90
15239;DHT22;7722;53.274;9.500;2022-12-04T15:40:23;2.60;99.90
15239;DHT22;7722;53.274;9.500;2022-12-04T15:42:51;2.70;99.90
15239;DHT22;7722;53.274;9.500;2022-12-04T15:45:24;2.70;99.90
15239;DHT22;7722;53.274;9.500;2022-12-04T15:47:56;2.60;99.90
15239;DHT22;7722;53.274;9.500;2022-12-04T15:50:25;2.60;99.90
15239;DHT22;7722;53.274;9.500;2022-12-04T15:52:58;2.70;99.90
15239;DHT22;7722;53.274;9.500;2022-12-04T15:55:29;2.60;99.90
15239;DHT22;7722;53.274;9.500;2022-12-04T15:57:59;2.70;99.90
15239;DHT22;7722;53.274;9.500;2022-12-04T16:00:29;2.70;99.90
15239;DHT22;7722;53.274;9.500;2022-12-04T16:02:57;2.70;99.90
15239;DHT22;7722;53.274;9.500;2022-12-04T16:05:30;2.70;99.90
15239;DHT22;7722;53.274;9.500;2022-12-04T16:08:20;2.70;99.90
15239;DHT22;7722;53.274;9.500;2022-12-04T16:10:55;2.70;99.90
15239;DHT22;7722;53.274;9.500;2022-12-04T16:13:29;2.70;99.90
15239;DHT22;7722;53.274;9.500;2022-12-04T16:15:56;2.80;99.90
15239;DHT22;7722;53.274;9.500;2022-12-04T16:18:27;2.80;99.90
15239;DHT22;7722;53.274;9.500;2022-12-04T16:20:55;2.80;99.90
15239;DHT22;7722;53.274;9.500;2022-12-04T16:23:24;2.80;99.90
15239;DHT22;7722;53.274;9.500;2022-12-04T16:25:52;2.90;99.90
15239;DHT22;7722;53.274;9.500;2022-12-04T16:28:19;2.90;99.90
15239;DHT22;7722;53.274;9.500;2022-12-04T16:30:46;2.80;99.90